createdAt,value
2022-08-28T00:00:02.489Z,23.43
2022-08-28T00:02:29.079Z,23.52
2022-08-28T00:04:55.713Z,23.52
2022-08-28T00:07:22.385Z,23.51
2022-08-28T00:09:48.935Z,23.50
2022-08-28T00:12:15.516Z,23.45
2022-08-28T00:14:42.181Z,23.41
2022-08-28T00:17:08.710Z,23.39
2022-08-28T00:19:38.737Z,23.38
2022-08-28T00:22:06.769Z,23.36
2022-08-28T00:24:34.289Z,23.27
2022-08-28T00:27:19.373Z,23.18
2022-08-28T00:29:46.022Z,23.17
2022-08-28T00:32:13.798Z,23.15
2022-08-28T00:34:40.464Z,23.03
2022-08-28T00:37:07.546Z,22.99
2022-08-28T00:39:34.546Z,22.96
2022-08-28T00:42:01.098Z,22.88
2022-08-28T00:44:29.046Z,22.83
2022-08-28T00:46:57.803Z,22.74
2022-08-28T00:49:28.477Z,22.61
2022-08-28T00:52:05.815Z,22.55
2022-08-28T00:54:34.940Z,22.50
2022-08-28T00:57:05.128Z,22.45
2022-08-28T00:59:31.671Z,22.42
2022-08-28T01:01:59.490Z,22.43
2022-08-28T01:04:28.486Z,22.46
2022-08-28T01:06:57.220Z,22.48
2022-08-28T01:09:27.297Z,22.49
2022-08-28T01:11:57.913Z,22.49
2022-08-28T01:14:26.662Z,22.43
2022-08-28T01:16:57.191Z,22.43
2022-08-28T01:19:35.147Z,22.44
2022-08-28T01:22:21.862Z,22.44
2022-08-28T01:24:50.831Z,22.49
2022-08-28T01:27:17.454Z,22.49
2022-08-28T01:29:44.805Z,22.50
2022-08-28T01:32:28.583Z,22.46
2022-08-28T01:34:55.127Z,22.47
2022-08-28T01:37:21.687Z,22.44
2022-08-28T01:39:48.258Z,22.43
2022-08-28T01:42:14.917Z,22.38
2022-08-28T01:44:41.499Z,22.36
2022-08-28T01:47:08.128Z,22.32
2022-08-28T01:49:34.646Z,22.28
2022-08-28T01:52:01.723Z,22.23
2022-08-28T01:54:29.992Z,22.19
2022-08-28T01:56:56.694Z,22.17
2022-08-28T01:59:23.298Z,22.10
2022-08-28T02:01:49.977Z,22.05
2022-08-28T02:04:16.796Z,22.09
2022-08-28T02:06:43.665Z,22.08
2022-08-28T02:09:14.464Z,22.03
2022-08-28T02:11:46.537Z,22.01
2022-08-28T02:14:14.300Z,21.99
2022-08-28T02:16:40.858Z,21.95
2022-08-28T02:19:07.414Z,21.91
2022-08-28T02:21:35.494Z,21.90
2022-08-28T02:24:02.117Z,21.93
2022-08-28T02:26:30.401Z,21.88
2022-08-28T02:28:57.037Z,21.86
2022-08-28T02:31:25.962Z,21.89
2022-08-28T02:33:52.593Z,21.89
2022-08-28T02:36:20.847Z,21.83
2022-08-28T02:38:47.616Z,21.77
2022-08-28T02:41:14.440Z,21.78
2022-08-28T02:43:41.350Z,21.77
2022-08-28T02:46:08.421Z,21.75
2022-08-28T02:48:37.142Z,21.72
2022-08-28T02:51:08.311Z,21.65
2022-08-28T02:53:35.850Z,21.59
2022-08-28T02:56:03.096Z,21.58
2022-08-28T02:58:32.268Z,21.52
2022-08-28T03:01:01.805Z,21.54
2022-08-28T03:03:31.183Z,21.54
2022-08-28T03:06:01.843Z,21.55
2022-08-28T03:08:28.770Z,21.51
2022-08-28T03:10:55.711Z,21.47
2022-08-28T03:13:27.098Z,21.40
2022-08-28T03:15:55.855Z,21.41
2022-08-28T03:18:24.480Z,21.40
2022-08-28T03:20:52.618Z,21.34
2022-08-28T03:23:28.662Z,21.23
2022-08-28T03:26:00.153Z,21.21
2022-08-28T03:28:29.813Z,21.17
2022-08-28T03:30:57.863Z,21.21
2022-08-28T03:33:25.357Z,21.17
2022-08-28T03:35:52.135Z,21.22
2022-08-28T03:38:19.166Z,21.26
2022-08-28T03:40:46.926Z,21.28
2022-08-28T03:43:16.842Z,21.23
2022-08-28T03:46:00.632Z,21.24
2022-08-28T03:48:31.231Z,21.23
2022-08-28T03:50:59.795Z,21.21
2022-08-28T03:53:29.407Z,21.17
2022-08-28T03:55:57.053Z,21.15
2022-08-28T03:58:24.621Z,21.15
2022-08-28T04:00:51.386Z,21.23
2022-08-28T04:03:18.641Z,21.26
2022-08-28T04:05:46.770Z,21.26
2022-08-28T04:08:16.603Z,21.28
2022-08-28T04:10:44.628Z,21.35
2022-08-28T04:13:13.061Z,21.35
2022-08-28T04:15:41.515Z,21.38
2022-08-28T04:18:09.420Z,21.34
2022-08-28T04:20:36.838Z,21.29
2022-08-28T04:23:04.121Z,21.29
2022-08-28T04:25:31.387Z,21.31
2022-08-28T04:27:58.182Z,21.32
2022-08-28T04:30:24.843Z,21.31
2022-08-28T04:32:51.388Z,21.32
2022-08-28T04:35:18.394Z,21.25
2022-08-28T04:37:44.897Z,21.20
2022-08-28T04:40:12.946Z,21.22
2022-08-28T04:42:40.148Z,21.25
2022-08-28T04:45:07.802Z,21.22
2022-08-28T04:47:39.187Z,21.26
2022-08-28T04:50:07.680Z,21.28
2022-08-28T04:52:34.468Z,21.29
2022-08-28T04:55:01.667Z,21.33
2022-08-28T04:57:28.308Z,21.32
2022-08-28T04:59:54.940Z,21.31
2022-08-28T05:02:21.521Z,21.36
2022-08-28T05:04:48.329Z,21.40
2022-08-28T05:07:14.874Z,21.42
2022-08-28T05:09:41.370Z,21.42
2022-08-28T05:12:07.910Z,21.46
2022-08-28T05:14:35.519Z,21.49
2022-08-28T05:17:02.043Z,21.56
2022-08-28T05:19:28.654Z,21.58
2022-08-28T05:21:55.285Z,21.64
2022-08-28T05:24:22.473Z,21.66
2022-08-28T05:26:49.128Z,21.67
2022-08-28T05:29:16.946Z,21.72
2022-08-28T05:31:44.114Z,21.84
2022-08-28T05:34:12.750Z,21.94
2022-08-28T05:36:39.993Z,22.05
2022-08-28T05:39:10.153Z,22.06
2022-08-28T05:41:39.110Z,22.08
2022-08-28T05:44:08.287Z,22.18
2022-08-28T05:46:37.542Z,22.25
2022-08-28T05:49:09.138Z,22.42
2022-08-28T05:51:37.118Z,22.56
2022-08-28T05:54:03.981Z,22.78
2022-08-28T05:56:35.014Z,22.85
2022-08-28T05:59:03.197Z,22.89
2022-08-28T06:01:32.737Z,22.95
2022-08-28T06:04:02.075Z,23.12
2022-08-28T06:06:31.111Z,23.19
2022-08-28T06:08:59.686Z,23.27
2022-08-28T06:11:30.704Z,23.34
2022-08-28T06:14:01.791Z,23.42
2022-08-28T06:16:34.961Z,23.40
2022-08-28T06:19:01.637Z,23.46
2022-08-28T06:21:29.065Z,23.45
2022-08-28T06:23:56.159Z,23.56
2022-08-28T06:26:23.207Z,23.62
2022-08-28T06:28:49.731Z,23.74
2022-08-28T06:31:24.676Z,23.92
2022-08-28T06:33:55.164Z,24.07
2022-08-28T06:36:22.536Z,24.15
2022-08-28T06:38:49.522Z,24.20
2022-08-28T06:41:16.374Z,24.24
2022-08-28T06:43:43.001Z,24.31
2022-08-28T06:46:09.794Z,24.37
2022-08-28T06:48:36.533Z,24.44
2022-08-28T06:51:06.808Z,24.49
2022-08-28T06:53:33.582Z,24.56
2022-08-28T06:56:07.260Z,24.56
2022-08-28T06:58:35.978Z,24.62
2022-08-28T07:01:16.731Z,24.72
2022-08-28T07:03:45.035Z,24.77
2022-08-28T07:06:14.017Z,24.85
2022-08-28T07:08:42.488Z,24.93
2022-08-28T07:11:29.489Z,25.01
2022-08-28T07:13:57.031Z,25.18
2022-08-28T07:16:29.462Z,25.31
2022-08-28T07:18:57.140Z,25.34
2022-08-28T07:21:24.135Z,25.39
2022-08-28T07:23:50.662Z,25.40
2022-08-28T07:26:20.597Z,25.39
2022-08-28T07:28:47.291Z,25.40
2022-08-28T07:31:16.578Z,25.43
2022-08-28T07:33:44.819Z,25.49
2022-08-28T07:36:28.816Z,25.57
2022-08-28T07:38:57.955Z,25.60
2022-08-28T07:41:27.923Z,25.68
2022-08-28T07:44:12.992Z,25.82
2022-08-28T07:46:40.356Z,25.89
2022-08-28T07:49:08.571Z,25.95
2022-08-28T07:51:36.006Z,26.00
2022-08-28T07:54:04.047Z,26.05
2022-08-28T07:56:31.467Z,26.08
2022-08-28T07:58:59.318Z,26.14
2022-08-28T08:01:27.629Z,26.27
2022-08-28T08:04:01.308Z,26.39
2022-08-28T08:06:34.494Z,26.60
2022-08-28T08:09:02.311Z,26.79
2022-08-28T08:11:32.215Z,26.94
2022-08-28T08:14:05.676Z,27.03
2022-08-28T08:16:41.258Z,27.03
2022-08-28T08:19:10.171Z,27.02
2022-08-28T08:21:37.603Z,26.90
2022-08-28T08:24:04.488Z,26.99
2022-08-28T08:26:31.269Z,27.07
2022-08-28T08:29:04.963Z,27.19
2022-08-28T08:31:33.280Z,27.31
2022-08-28T08:34:04.722Z,27.41
2022-08-28T08:36:34.235Z,27.41
2022-08-28T08:39:01.860Z,27.39
2022-08-28T08:41:43.581Z,27.42
2022-08-28T08:44:23.460Z,27.54
2022-08-28T08:47:27.051Z,27.66
2022-08-28T08:50:27.452Z,27.76
2022-08-28T08:53:21.591Z,27.87
2022-08-28T08:55:50.826Z,27.90
2022-08-28T08:58:35.242Z,27.93
2022-08-28T09:01:04.712Z,28.05
2022-08-28T09:03:49.525Z,28.19
2022-08-28T09:06:29.891Z,28.17
2022-08-28T09:09:00.468Z,28.22
2022-08-28T09:11:41.715Z,28.37
2022-08-28T09:14:33.058Z,28.49
2022-08-28T09:17:00.811Z,28.57
2022-08-28T09:19:27.403Z,28.67
2022-08-28T09:21:54.507Z,28.78
2022-08-28T09:24:22.656Z,28.78
2022-08-28T09:26:56.535Z,28.84
2022-08-28T09:29:47.079Z,28.81
2022-08-28T09:32:16.565Z,28.93
2022-08-28T09:35:06.346Z,29.02
2022-08-28T09:37:34.695Z,29.13
2022-08-28T09:40:20.310Z,29.17
2022-08-28T09:43:28.200Z,29.24
2022-08-28T09:45:58.274Z,29.28
2022-08-28T09:48:36.474Z,29.38
2022-08-28T09:51:07.836Z,29.37
2022-08-28T09:54:02.023Z,29.59
2022-08-28T09:56:32.738Z,29.57
2022-08-28T09:59:06.845Z,29.66
2022-08-28T10:01:52.566Z,29.65
2022-08-28T10:04:19.483Z,29.62
2022-08-28T10:06:54.937Z,29.68
2022-08-28T10:09:45.126Z,29.55
2022-08-28T10:12:26.544Z,29.56
2022-08-28T10:15:13.190Z,29.76
2022-08-28T10:17:49.863Z,29.87
2022-08-28T10:20:38.539Z,30.06
2022-08-28T10:23:24.778Z,30.18
2022-08-28T10:26:19.478Z,30.24
2022-08-28T10:29:16.255Z,30.46
2022-08-28T10:32:20.873Z,30.35
2022-08-28T10:34:50.341Z,30.48
2022-08-28T10:37:56.755Z,30.47
2022-08-28T10:40:28.555Z,30.55
2022-08-28T10:43:04.248Z,30.76
2022-08-28T10:45:33.593Z,30.88
2022-08-28T10:48:27.301Z,31.00
2022-08-28T10:51:00.795Z,31.21
2022-08-28T10:53:38.087Z,31.20
2022-08-28T10:56:13.116Z,31.25
2022-08-28T10:58:40.924Z,31.26
2022-08-28T11:01:32.900Z,31.36
2022-08-28T11:04:03.451Z,31.37
2022-08-28T11:06:39.031Z,31.45
2022-08-28T11:09:25.795Z,31.46
2022-08-28T11:12:10.145Z,31.56
2022-08-28T11:14:47.762Z,31.69
2022-08-28T11:17:30.476Z,31.85
2022-08-28T11:20:00.147Z,31.97
2022-08-28T11:22:51.100Z,32.03
2022-08-28T11:25:32.503Z,32.15
2022-08-28T11:28:23.675Z,32.32
2022-08-28T11:31:05.597Z,32.36
2022-08-28T11:33:52.634Z,32.49
2022-08-28T11:36:21.879Z,32.54
2022-08-28T11:38:51.356Z,32.60
2022-08-28T11:41:30.384Z,32.51
2022-08-28T11:43:59.632Z,32.47
2022-08-28T11:46:32.730Z,32.62
2022-08-28T11:49:02.275Z,32.74
2022-08-28T11:52:01.553Z,33.01
2022-08-28T11:54:47.173Z,33.40
2022-08-28T11:57:15.031Z,33.57
2022-08-28T12:00:18.791Z,33.68
2022-08-28T12:02:49.623Z,33.99
2022-08-28T12:05:16.154Z,33.97
2022-08-28T12:07:45.125Z,34.01
2022-08-28T12:10:20.721Z,34.05
2022-08-28T12:12:47.202Z,33.91
2022-08-28T12:15:28.731Z,34.21
2022-08-28T12:18:06.129Z,34.30
2022-08-28T12:20:40.946Z,34.24
2022-08-28T12:23:35.059Z,34.10
2022-08-28T12:26:06.664Z,34.20
2022-08-28T12:28:46.675Z,34.06
2022-08-28T12:31:56.987Z,34.02
2022-08-28T12:34:51.556Z,34.23
2022-08-28T12:37:52.203Z,34.51
2022-08-28T12:40:31.843Z,34.53
2022-08-28T12:43:04.216Z,34.72
2022-08-28T12:45:48.743Z,34.89
2022-08-28T12:48:22.982Z,34.94
2022-08-28T12:50:58.869Z,35.01
2022-08-28T12:53:27.584Z,34.93
2022-08-28T12:55:55.643Z,35.06
2022-08-28T12:58:39.391Z,35.01
2022-08-28T13:01:10.251Z,35.30
2022-08-28T13:03:50.123Z,35.58
2022-08-28T13:06:25.098Z,35.88
2022-08-28T13:08:59.718Z,36.04
2022-08-28T13:11:30.693Z,36.22
2022-08-28T13:13:57.243Z,36.34
2022-08-28T13:16:43.655Z,36.12
2022-08-28T13:19:10.708Z,36.07
2022-08-28T13:22:00.536Z,35.98
2022-08-28T13:24:35.815Z,36.16
2022-08-28T13:27:08.811Z,36.77
2022-08-28T13:29:36.985Z,36.83
2022-08-28T13:32:17.506Z,35.85
2022-08-28T13:35:12.870Z,35.64
2022-08-28T13:37:53.311Z,35.45
2022-08-28T13:40:55.788Z,35.66
2022-08-28T13:43:12.876Z,35.48
2022-08-28T13:45:42.944Z,35.79
2022-08-28T13:48:13.255Z,36.32
2022-08-28T13:50:47.191Z,36.72
2022-08-28T13:53:14.941Z,36.98
2022-08-28T13:55:41.558Z,37.53
2022-08-28T13:58:08.146Z,37.58
2022-08-28T14:00:39.837Z,37.71
2022-08-28T14:03:25.130Z,38.33
2022-08-28T14:05:51.655Z,37.36
2022-08-28T14:08:18.205Z,36.51
2022-08-28T14:10:44.734Z,36.20
2022-08-28T14:13:11.267Z,36.11
2022-08-28T14:15:38.382Z,36.37
2022-08-28T14:18:05.498Z,36.74
2022-08-28T14:20:32.786Z,37.39
2022-08-28T14:22:59.374Z,36.90
2022-08-28T14:25:26.014Z,36.75
2022-08-28T14:27:52.577Z,36.71
2022-08-28T14:30:19.889Z,37.18
2022-08-28T14:32:46.415Z,37.17
2022-08-28T14:35:13.109Z,37.25
2022-08-28T14:37:39.718Z,37.19
2022-08-28T14:40:07.161Z,36.71
2022-08-28T14:42:33.727Z,36.65
2022-08-28T14:45:00.310Z,37.02
2022-08-28T14:47:27.122Z,37.31
2022-08-28T14:49:53.716Z,37.14
2022-08-28T14:52:20.299Z,37.21
2022-08-28T14:54:46.780Z,37.08
2022-08-28T14:57:13.665Z,37.65
2022-08-28T14:59:40.265Z,37.77
2022-08-28T15:02:07.824Z,37.82
2022-08-28T15:04:35.363Z,37.64
2022-08-28T15:07:06.396Z,37.39
2022-08-28T15:09:36.837Z,36.90
2022-08-28T15:12:03.662Z,37.05
2022-08-28T15:14:30.425Z,38.00
2022-08-28T15:16:57.089Z,38.09
2022-08-28T15:19:24.092Z,37.57
2022-08-28T15:21:54.063Z,38.18
2022-08-28T15:24:24.293Z,37.87
2022-08-28T15:26:50.928Z,38.58
2022-08-28T15:29:18.277Z,37.46
2022-08-28T15:31:48.944Z,37.36
2022-08-28T15:34:21.338Z,37.31
2022-08-28T15:36:54.863Z,37.69
2022-08-28T15:39:42.755Z,37.11
2022-08-28T15:42:10.331Z,37.61
2022-08-28T15:44:37.417Z,38.45
2022-08-28T15:47:05.047Z,38.04
2022-08-28T15:49:36.156Z,37.20
2022-08-28T15:52:10.805Z,36.10
2022-08-28T15:54:37.546Z,35.44
2022-08-28T15:57:04.231Z,35.24
2022-08-28T15:59:39.977Z,34.80
2022-08-28T16:02:17.805Z,34.90
2022-08-28T16:04:44.398Z,34.45
2022-08-28T16:07:11.159Z,34.34
2022-08-28T16:09:37.811Z,33.41
2022-08-28T16:12:04.502Z,32.92
2022-08-28T16:14:32.764Z,32.39
2022-08-28T16:16:59.395Z,31.80
2022-08-28T16:19:32.555Z,31.34
2022-08-28T16:21:59.076Z,31.16
2022-08-28T16:24:25.652Z,31.48
2022-08-28T16:26:52.161Z,31.54
2022-08-28T16:29:18.879Z,31.49
2022-08-28T16:31:47.990Z,31.70
2022-08-28T16:34:15.589Z,31.57
2022-08-28T16:36:48.148Z,31.39
2022-08-28T16:39:14.866Z,31.09
2022-08-28T16:41:42.171Z,31.01
2022-08-28T16:44:09.075Z,30.88
2022-08-28T16:46:35.725Z,30.60
2022-08-28T16:49:02.584Z,30.52
2022-08-28T16:51:29.762Z,30.36
2022-08-28T16:53:56.882Z,30.26
2022-08-28T16:56:26.723Z,30.17
2022-08-28T16:58:53.974Z,30.14
2022-08-28T17:01:24.071Z,30.00
2022-08-28T17:03:54.717Z,29.81
2022-08-28T17:06:27.116Z,29.52
2022-08-28T17:08:56.895Z,29.37
2022-08-28T17:11:25.905Z,29.31
2022-08-28T17:13:53.210Z,29.12
2022-08-28T17:16:20.804Z,28.90
2022-08-28T17:18:51.987Z,28.77
2022-08-28T17:21:38.476Z,28.45
2022-08-28T17:24:05.407Z,28.58
2022-08-28T17:26:31.943Z,28.50
2022-08-28T17:28:58.615Z,28.24
2022-08-28T17:31:25.177Z,28.02
2022-08-28T17:33:51.806Z,28.09
2022-08-28T17:36:25.675Z,27.96
2022-08-28T17:39:05.606Z,27.96
2022-08-28T17:41:33.432Z,27.79
2022-08-28T17:44:01.316Z,27.59
2022-08-28T17:46:28.246Z,27.34
2022-08-28T17:48:56.097Z,27.39
2022-08-28T17:51:40.418Z,27.23
2022-08-28T17:54:16.797Z,27.21
2022-08-28T17:56:43.962Z,27.13
2022-08-28T17:59:11.825Z,27.16
2022-08-28T18:01:38.929Z,26.97
2022-08-28T18:04:05.895Z,26.94
2022-08-28T18:06:33.512Z,26.93
2022-08-28T18:09:00.455Z,26.83
2022-08-28T18:11:27.442Z,26.82
2022-08-28T18:13:54.169Z,26.77
2022-08-28T18:16:20.941Z,26.70
2022-08-28T18:18:47.666Z,26.59
2022-08-28T18:21:14.811Z,26.47
2022-08-28T18:23:41.408Z,26.41
2022-08-28T18:26:08.613Z,26.45
2022-08-28T18:28:35.646Z,26.53
2022-08-28T18:31:03.174Z,26.50
2022-08-28T18:33:29.735Z,26.52
2022-08-28T18:35:56.873Z,26.53
2022-08-28T18:38:28.063Z,26.57
2022-08-28T18:40:55.902Z,26.50
2022-08-28T18:43:22.560Z,26.44
2022-08-28T18:45:49.635Z,26.46
2022-08-28T18:48:16.881Z,26.46
2022-08-28T18:50:46.416Z,26.52
2022-08-28T18:53:18.089Z,26.46
2022-08-28T18:55:45.813Z,26.45
2022-08-28T18:58:15.447Z,26.47
2022-08-28T19:00:42.712Z,26.44
2022-08-28T19:03:09.957Z,26.39
2022-08-28T19:05:37.870Z,26.25
2022-08-28T19:08:04.661Z,26.20
2022-08-28T19:10:34.738Z,26.19
2022-08-28T19:13:02.462Z,26.16
2022-08-28T19:15:29.507Z,26.07
2022-08-28T19:17:56.141Z,26.05
2022-08-28T19:20:22.923Z,25.97
2022-08-28T19:22:49.848Z,25.93
2022-08-28T19:25:27.893Z,26.00
2022-08-28T19:28:01.546Z,25.99
2022-08-28T19:30:32.909Z,25.90
2022-08-28T19:33:02.161Z,25.70
2022-08-28T19:35:28.857Z,25.54
2022-08-28T19:37:55.430Z,25.47
2022-08-28T19:40:22.490Z,25.50
2022-08-28T19:42:52.119Z,25.47
2022-08-28T19:45:19.621Z,25.51
2022-08-28T19:47:47.211Z,25.45
2022-08-28T19:50:15.726Z,25.36
2022-08-28T19:52:43.398Z,25.39
2022-08-28T19:55:17.393Z,25.35
2022-08-28T19:57:43.959Z,25.28
2022-08-28T20:00:11.248Z,25.29
2022-08-28T20:02:37.815Z,25.27
2022-08-28T20:05:05.507Z,25.27
2022-08-28T20:07:32.014Z,25.23
2022-08-28T20:09:58.559Z,25.21
2022-08-28T20:12:25.159Z,25.10
2022-08-28T20:14:52.040Z,24.97
2022-08-28T20:17:18.831Z,24.83
2022-08-28T20:19:48.782Z,24.93
2022-08-28T20:22:15.607Z,24.89
2022-08-28T20:24:42.325Z,24.83
2022-08-28T20:27:09.190Z,24.81
2022-08-28T20:29:36.055Z,24.79
2022-08-28T20:32:03.242Z,24.77
2022-08-28T20:34:29.838Z,24.73
2022-08-28T20:36:56.394Z,24.64
2022-08-28T20:39:23.346Z,24.55
2022-08-28T20:41:49.981Z,24.47
2022-08-28T20:44:19.386Z,24.50
2022-08-28T20:46:51.081Z,24.48
2022-08-28T20:49:21.737Z,24.44
2022-08-28T20:51:54.549Z,24.38
2022-08-28T20:54:24.468Z,24.33
2022-08-28T20:56:52.146Z,24.24
2022-08-28T20:59:20.096Z,24.25
2022-08-28T21:01:46.750Z,24.23
2022-08-28T21:04:13.384Z,24.24
2022-08-28T21:06:39.925Z,24.04
2022-08-28T21:09:06.475Z,23.94
2022-08-28T21:11:33.634Z,23.93
2022-08-28T21:14:00.235Z,23.92
2022-08-28T21:16:26.835Z,23.85
2022-08-28T21:19:14.869Z,23.86
2022-08-28T21:21:41.174Z,23.79
2022-08-28T21:24:10.699Z,23.67
2022-08-28T21:26:39.370Z,23.55
2022-08-28T21:29:09.792Z,23.64
2022-08-28T21:31:36.978Z,23.46
2022-08-28T21:34:03.520Z,23.38
2022-08-28T21:36:30.134Z,23.38
2022-08-28T21:38:57.910Z,23.27
2022-08-28T21:41:24.507Z,23.13
2022-08-28T21:43:51.052Z,23.18
2022-08-28T21:46:17.654Z,23.18
2022-08-28T21:48:48.427Z,23.17
2022-08-28T21:51:16.401Z,23.18
2022-08-28T21:53:43.269Z,23.13
2022-08-28T21:56:10.651Z,23.01
2022-08-28T21:58:38.641Z,22.80
2022-08-28T22:01:05.528Z,22.76
2022-08-28T22:03:32.325Z,22.83
2022-08-28T22:05:58.868Z,22.83
2022-08-28T22:08:28.685Z,22.79
2022-08-28T22:10:56.454Z,22.82
2022-08-28T22:13:22.993Z,22.84
2022-08-28T22:15:49.543Z,22.86
2022-08-28T22:18:16.316Z,22.85
2022-08-28T22:21:02.827Z,22.72
2022-08-28T22:23:33.636Z,22.66
2022-08-28T22:26:03.359Z,22.71
2022-08-28T22:28:31.362Z,22.76
2022-08-28T22:30:58.594Z,22.80
2022-08-28T22:33:26.254Z,22.76
2022-08-28T22:35:53.235Z,22.76
2022-08-28T22:38:21.386Z,22.79
2022-08-28T22:40:48.474Z,22.76
2022-08-28T22:43:16.422Z,22.69
2022-08-28T22:45:46.364Z,22.66
2022-08-28T22:48:15.086Z,22.65
2022-08-28T22:50:43.067Z,22.66
2022-08-28T22:53:10.422Z,22.65
2022-08-28T22:55:41.377Z,22.65
2022-08-28T22:58:10.905Z,22.58
2022-08-28T23:00:40.110Z,22.55
2022-08-28T23:03:06.864Z,22.55
2022-08-28T23:05:33.983Z,22.53
2022-08-28T23:08:00.514Z,22.51
2022-08-28T23:10:48.372Z,22.49
2022-08-28T23:13:15.184Z,22.40
2022-08-28T23:15:43.381Z,22.41
2022-08-28T23:18:11.117Z,22.37
2022-08-28T23:20:39.398Z,22.31
2022-08-28T23:23:06.789Z,22.24
2022-08-28T23:25:34.195Z,22.22
2022-08-28T23:28:05.853Z,22.21
2022-08-28T23:30:33.406Z,22.10
2022-08-28T23:33:00.012Z,22.08
2022-08-28T23:35:26.700Z,22.07
2022-08-28T23:37:53.312Z,22.14
2022-08-28T23:40:22.564Z,22.15
2022-08-28T23:42:49.330Z,22.18
2022-08-28T23:45:17.224Z,22.19
2022-08-28T23:47:44.387Z,22.22
2022-08-28T23:50:20.481Z,22.24
2022-08-28T23:52:47.975Z,22.24
2022-08-28T23:55:16.759Z,22.15
2022-08-28T23:57:44.109Z,22.13
